Terminal Aerodrome Forecast
Issued by NWS

Home | Current Version | Previous Version | Text Only | Print | Product List | Glossary On
Versions: 1 2 3 4 5 6 7 8 9 10 11 12 13 14
400
FTUS43 KTOP 280542
TAFMHK
TAF
KMHK 280542Z 2806/0106 19012KT P6SM SCT150 WS020/20050KT
      TEMPO 2806/2810 BKN015
     FM281400 24008KT P6SM BKN150
     FM281700 27012KT P6SM SCT140
     FM282200 30010KT P6SM BKN110
     FM010000 35010KT P6SM -RA BKN090
     FM010400 33013KT P6SM RASN OVC035=

USA.gov is the U.S. government's official web portal to all federal, state and local government web resources and services.